sensor_id;sensor_type;location;lat;lon;timestamp;pressure;altitude;pressure_sealevel;temperature;humidity
36242;BME280;22283;42.748;12.732;2023-04-09T00:04:30;98116.53;;;4.11;100.00
36242;BME280;22283;42.748;12.732;2023-04-09T00:09:31;98111.31;;;4.11;100.00
36242;BME280;22283;42.748;12.732;2023-04-09T00:14:32;98101.28;;;4.02;100.00
36242;BME280;22283;42.748;12.732;2023-04-09T00:19:32;98101.28;;;4.02;100.00
36242;BME280;22283;42.748;12.732;2023-04-09T00:24:33;98100.44;;;4.01;100.00
36242;BME280;22283;42.748;12.732;2023-04-09T00:29:34;98106.75;;;4.33;100.00
36242;BME280;22283;42.748;12.732;2023-04-09T00:34:34;98087.50;;;4.34;100.00
36242;BME280;22283;42.748;12.732;2023-04-09T00:39:36;98108.91;;;4.25;100.00
36242;BME280;22283;42.748;12.732;2023-04-09T00:44:36;98106.91;;;4.30;100.00
36242;BME280;22283;42.748;12.732;2023-04-09T00:49:37;98105.47;;;4.23;100.00
36242;BME280;22283;42.748;12.732;2023-04-09T00:54:38;98096.25;;;4.16;100.00
36242;BME280;22283;42.748;12.732;2023-04-09T00:59:39;98098.69;;;4.19;100.00
36242;BME280;22283;42.748;12.732;2023-04-09T01:04:41;98106.91;;;4.30;100.00
36242;BME280;22283;42.748;12.732;2023-04-09T01:15:25;98111.16;;;4.50;100.00
36242;BME280;22283;42.748;12.732;2023-04-09T01:20:40;98111.16;;;4.50;100.00
36242;BME280;22283;42.748;12.732;2023-04-09T01:26:06;98114.25;;;4.41;100.00
36242;BME280;22283;42.748;12.732;2023-04-09T01:31:34;98113.09;;;4.47;100.00
36242;BME280;22283;42.748;12.732;2023-04-09T01:36:38;98125.28;;;4.48;100.00
36242;BME280;22283;42.748;12.732;2023-04-09T01:41:40;98126.03;;;4.32;100.00
36242;BME280;22283;42.748;12.732;2023-04-09T01:46:41;98114.88;;;4.27;100.00
36242;BME280;22283;42.748;12.732;2023-04-09T01:51:42;98117.88;;;4.19;100.00
36242;BME280;22283;42.748;12.732;2023-04-09T01:56:45;98110.25;;;4.15;100.00
36242;BME280;22283;42.748;12.732;2023-04-09T02:01:53;98116.16;;;4.37;100.00
36242;BME280;22283;42.748;12.732;2023-04-09T02:12:11;98119.75;;;4.35;100.00
36242;BME280;22283;42.748;12.732;2023-04-09T02:17:13;98124.25;;;4.50;100.00
36242;BME280;22283;42.748;12.732;2023-04-09T02:22:15;98128.81;;;4.47;100.00
36242;BME280;22283;42.748;12.732;2023-04-09T02:27:16;98130.91;;;4.57;100.00
36242;BME280;22283;42.748;12.732;2023-04-09T02:32:17;98121.72;;;4.49;100.00
36242;BME280;22283;42.748;12.732;2023-04-09T02:37:18;98124.22;;;4.52;100.00
36242;BME280;22283;42.748;12.732;2023-04-09T02:42:20;98125.78;;;4.37;100.00
36242;BME280;22283;42.748;12.732;2023-04-09T02:47:21;98124.75;;;4.22;100.00
36242;BME280;22283;42.748;12.732;2023-04-09T02:52:22;98115.91;;;4.06;100.00
36242;BME280;22283;42.748;12.732;2023-04-09T02:57:24;98126.28;;;4.26;100.00
36242;BME280;22283;42.748;12.732;2023-04-09T03:02:25;98118.16;;;4.32;100.00
36242;BME280;22283;42.748;12.732;2023-04-09T03:07:26;98123.75;;;4.25;100.00
36242;BME280;22283;42.748;12.732;2023-04-09T03:12:26;98112.59;;;4.21;100.00
36242;BME280;22283;42.748;12.732;2023-04-09T03:17:27;98127.22;;;4.25;100.00
36242;BME280;22283;42.748;12.732;2023-04-09T03:22:35;98127.72;;;4.33;100.00
36242;BME280;22283;42.748;12.732;2023-04-09T03:27:38;98119.50;;;4.22;100.00
36242;BME280;22283;42.748;12.732;2023-04-09T03:32:58;98128.66;;;4.13;100.00
36242;BME280;22283;42.748;12.732;2023-04-09T03:38:00;98118.09;;;4.15;100.00
36242;BME280;22283;42.748;12.732;2023-04-09T03:43:01;98127.16;;;4.08;100.00
36242;BME280;22283;42.748;12.732;2023-04-09T03:48:01;98126.03;;;4.13;100.00
36242;BME280;22283;42.748;12.732;2023-04-09T03:53:02;98133.09;;;4.11;100.00
36242;BME280;22283;42.748;12.732;2023-04-09T03:58:05;98140.63;;;4.00;100.00
36242;BME280;22283;42.748;12.732;2023-04-09T04:03:10;98147.34;;;4.06;100.00
36242;BME280;22283;42.748;12.732;2023-04-09T04:08:37;98154.06;;;3.92;100.00
36242;BME280;22283;42.748;12.732;2023-04-09T04:13:38;98142.94;;;3.87;100.00
36242;BME280;22283;42.748;12.732;2023-04-09T04:18:41;98161.97;;;4.10;100.00
36242;BME280;22283;42.748;12.732;2023-04-09T04:23:42;98159.63;;;4.04;100.00
36242;BME280;22283;42.748;12.732;2023-04-09T04:28:59;98153.56;;;4.03;100.00
36242;BME280;22283;42.748;12.732;2023-04-09T04:34:21;98161.00;;;3.93;100.00
36242;BME280;22283;42.748;12.732;2023-04-09T04:39:30;98173.63;;;3.84;100.00
36242;BME280;22283;42.748;12.732;2023-04-09T04:44:37;98173.09;;;3.77;100.00
36242;BME280;22283;42.748;12.732;2023-04-09T04:50:00;98176.81;;;3.72;100.00
36242;BME280;22283;42.748;12.732;2023-04-09T04:55:01;98181.31;;;3.68;100.00
36242;BME280;22283;42.748;12.732;2023-04-09T05:00:02;98177.25;;;3.81;100.00
36242;BME280;22283;42.748;12.732;2023-04-09T05:05:04;98176.53;;;3.78;100.00
36242;BME280;22283;42.748;12.732;2023-04-09T05:10:11;98184.59;;;3.73;100.00
36242;BME280;22283;42.748;12.732;2023-04-09T05:15:15;98193.00;;;3.80;100.00
36242;BME280;22283;42.748;12.732;2023-04-09T05:20:16;98194.22;;;3.91;100.00
36242;BME280;22283;42.748;12.732;2023-04-09T05:25:26;98194.25;;;4.10;100.00
36242;BME280;22283;42.748;12.732;2023-04-09T05:30:27;98201.91;;;3.96;100.00
36242;BME280;22283;42.748;12.732;2023-04-09T05:35:30;98203.44;;;3.81;100.00
36242;BME280;22283;42.748;12.732;2023-04-09T05:40:31;98218.59;;;4.31;100.00
36242;BME280;22283;42.748;12.732;2023-04-09T05:45:32;98207.34;;;5.54;100.00
36242;BME280;22283;42.748;12.732;2023-04-09T05:50:33;98219.53;;;5.72;99.43
36242;BME280;22283;42.748;12.732;2023-04-09T05:55:34;98219.16;;;5.62;100.00
36242;BME280;22283;42.748;12.732;2023-04-09T06:00:36;98237.34;;;5.65;100.00
36242;BME280;22283;42.748;12.732;2023-04-09T06:05:36;98240.97;;;5.80;99.83
36242;BME280;22283;42.748;12.732;2023-04-09T06:10:37;98239.09;;;6.49;94.68
36242;BME280;22283;42.748;12.732;2023-04-09T06:15:38;98227.69;;;7.42;89.38
36242;BME280;22283;42.748;12.732;2023-04-09T06:20:39;98229.84;;;8.22;84.50
36242;BME280;22283;42.748;12.732;2023-04-09T06:25:39;98231.53;;;8.93;80.39
36242;BME280;22283;42.748;12.732;2023-04-09T06:30:40;98242.31;;;9.30;74.86
36242;BME280;22283;42.748;12.732;2023-04-09T06:35:41;98240.38;;;9.59;72.71
36242;BME280;22283;42.748;12.732;2023-04-09T06:40:42;98245.25;;;10.16;72.08
36242;BME280;22283;42.748;12.732;2023-04-09T06:45:43;98245.50;;;10.75;69.55
36242;BME280;22283;42.748;12.732;2023-04-09T06:50:44;98247.16;;;11.37;65.89
36242;BME280;22283;42.748;12.732;2023-04-09T06:55:45;98253.16;;;11.98;63.34
36242;BME280;22283;42.748;12.732;2023-04-09T07:00:45;98247.75;;;12.34;62.55
36242;BME280;22283;42.748;12.732;2023-04-09T07:05:46;98244.00;;;12.70;61.41
36242;BME280;22283;42.748;12.732;2023-04-09T07:10:48;98260.19;;;13.21;60.39
36242;BME280;22283;42.748;12.732;2023-04-09T07:15:48;98254.75;;;12.46;59.77
36242;BME280;22283;42.748;12.732;2023-04-09T07:20:51;98268.78;;;11.55;62.84
36242;BME280;22283;42.748;12.732;2023-04-09T07:25:51;98274.16;;;10.94;66.66
36242;BME280;22283;42.748;12.732;2023-04-09T07:30:52;98272.38;;;10.82;67.21
36242;BME280;22283;42.748;12.732;2023-04-09T07:35:53;98279.78;;;11.14;67.05
36242;BME280;22283;42.748;12.732;2023-04-09T07:40:55;98278.53;;;11.54;65.77
36242;BME280;22283;42.748;12.732;2023-04-09T07:45:56;98276.09;;;12.22;62.82
36242;BME280;22283;42.748;12.732;2023-04-09T07:50:57;98284.19;;;12.88;59.48
36242;BME280;22283;42.748;12.732;2023-04-09T07:55:57;98279.63;;;13.22;57.64
36242;BME280;22283;42.748;12.732;2023-04-09T08:00:58;98291.63;;;13.05;58.15
36242;BME280;22283;42.748;12.732;2023-04-09T08:05:59;98282.34;;;12.88;58.03
36242;BME280;22283;42.748;12.732;2023-04-09T08:10:59;98282.97;;;12.58;60.18
36242;BME280;22283;42.748;12.732;2023-04-09T08:16:00;98286.31;;;13.05;59.84
36242;BME280;22283;42.748;12.732;2023-04-09T08:21:03;98289.06;;;13.26;59.57
36242;BME280;22283;42.748;12.732;2023-04-09T08:26:04;98292.69;;;13.02;59.08
36242;BME280;22283;42.748;12.732;2023-04-09T08:31:05;98297.91;;;13.04;59.59
36242;BME280;22283;42.748;12.732;2023-04-09T08:36:08;98287.03;;;13.83;60.28
36242;BME280;22283;42.748;12.732;2023-04-09T08:41:17;98283.00;;;14.09;57.47
36242;BME280;22283;42.748;12.732;2023-04-09T08:46:18;98287.69;;;13.96;57.60
36242;BME280;22283;42.748;12.732;2023-04-09T08:51:20;98280.50;;;13.87;57.39
36242;BME280;22283;42.748;12.732;2023-04-09T08:56:22;98274.06;;;14.10;56.76
36242;BME280;22283;42.748;12.732;2023-04-09T09:01:23;98277.28;;;14.35;55.96
36242;BME280;22283;42.748;12.732;2023-04-09T09:06:30;98272.81;;;14.35;53.47
36242;BME280;22283;42.748;12.732;2023-04-09T09:11:39;98284.53;;;14.33;53.22
36242;BME280;22283;42.748;12.732;2023-04-09T09:16:43;98279.03;;;14.45;49.76
36242;BME280;22283;42.748;12.732;2023-04-09T09:21:54;98286.25;;;14.34;48.22
36242;BME280;22283;42.748;12.732;2023-04-09T09:26:55;98282.25;;;14.18;49.65
36242;BME280;22283;42.748;12.732;2023-04-09T09:31:58;98270.81;;;13.86;49.61
36242;BME280;22283;42.748;12.732;2023-04-09T09:37:00;98269.16;;;14.36;49.20
36242;BME280;22283;42.748;12.732;2023-04-09T09:42:06;98269.44;;;14.54;48.22
36242;BME280;22283;42.748;12.732;2023-04-09T09:47:08;98260.88;;;14.60;46.65
36242;BME280;22283;42.748;12.732;2023-04-09T09:52:09;98265.25;;;14.61;47.95
36242;BME280;22283;42.748;12.732;2023-04-09T09:57:11;98266.81;;;15.23;46.84
36242;BME280;22283;42.748;12.732;2023-04-09T10:02:19;98264.16;;;15.43;45.12
36242;BME280;22283;42.748;12.732;2023-04-09T10:07:20;98258.44;;;15.57;46.93
36242;BME280;22283;42.748;12.732;2023-04-09T10:12:22;98263.75;;;15.57;46.15
36242;BME280;22283;42.748;12.732;2023-04-09T10:17:23;98256.00;;;15.06;45.59
36242;BME280;22283;42.748;12.732;2023-04-09T10:22:25;98258.56;;;14.76;46.65
36242;BME280;22283;42.748;12.732;2023-04-09T10:27:29;98256.13;;;14.54;47.17
36242;BME280;22283;42.748;12.732;2023-04-09T10:32:33;98251.69;;;14.74;46.08
36242;BME280;22283;42.748;12.732;2023-04-09T10:37:35;98243.53;;;15.25;46.11
36242;BME280;22283;42.748;12.732;2023-04-09T10:42:38;98240.28;;;15.03;44.12
36242;BME280;22283;42.748;12.732;2023-04-09T10:47:42;98252.91;;;15.10;44.48
36242;BME280;22283;42.748;12.732;2023-04-09T10:52:46;98245.38;;;15.93;44.35
36242;BME280;22283;42.748;12.732;2023-04-09T10:57:47;98229.19;;;16.51;39.34
36242;BME280;22283;42.748;12.732;2023-04-09T11:08:17;98220.09;;;15.58;42.78
36242;BME280;22283;42.748;12.732;2023-04-09T11:13:18;98229.59;;;15.12;42.42
36242;BME280;22283;42.748;12.732;2023-04-09T11:18:22;98231.84;;;14.97;42.82
36242;BME280;22283;42.748;12.732;2023-04-09T11:23:23;98228.47;;;14.95;43.16
36242;BME280;22283;42.748;12.732;2023-04-09T11:28:25;98224.59;;;15.29;41.64
36242;BME280;22283;42.748;12.732;2023-04-09T11:33:35;98239.19;;;15.24;41.86
36242;BME280;22283;42.748;12.732;2023-04-09T11:38:36;98222.81;;;16.25;42.35
36242;BME280;22283;42.748;12.732;2023-04-09T11:43:38;98217.84;;;16.77;40.62
36242;BME280;22283;42.748;12.732;2023-04-09T11:48:39;98210.03;;;16.18;41.67
36242;BME280;22283;42.748;12.732;2023-04-09T11:53:40;98214.91;;;15.86;41.31
36242;BME280;22283;42.748;12.732;2023-04-09T11:58:45;98216.16;;;15.62;42.61
36242;BME280;22283;42.748;12.732;2023-04-09T12:03:53;98214.22;;;15.45;42.46
36242;BME280;22283;42.748;12.732;2023-04-09T12:08:55;98214.75;;;15.39;45.24
36242;BME280;22283;42.748;12.732;2023-04-09T12:14:04;98220.50;;;15.63;44.03
36242;BME280;22283;42.748;12.732;2023-04-09T12:19:06;98212.34;;;15.94;43.49
36242;BME280;22283;42.748;12.732;2023-04-09T12:24:07;98213.06;;;15.86;43.41
36242;BME280;22283;42.748;12.732;2023-04-09T12:29:08;98217.91;;;16.57;43.45
36242;BME280;22283;42.748;12.732;2023-04-09T12:34:08;98230.16;;;16.03;43.46
36242;BME280;22283;42.748;12.732;2023-04-09T12:39:09;98227.41;;;15.56;44.61
36242;BME280;22283;42.748;12.732;2023-04-09T12:44:10;98240.59;;;15.87;44.46
36242;BME280;22283;42.748;12.732;2023-04-09T12:49:11;98254.63;;;15.98;41.49
36242;BME280;22283;42.748;12.732;2023-04-09T12:54:11;98240.28;;;16.09;42.40
36242;BME280;22283;42.748;12.732;2023-04-09T12:59:12;98232.72;;;16.05;42.21
36242;BME280;22283;42.748;12.732;2023-04-09T13:04:13;98259.94;;;16.08;42.76
36242;BME280;22283;42.748;12.732;2023-04-09T13:09:13;98256.78;;;14.87;44.43
36242;BME280;22283;42.748;12.732;2023-04-09T13:14:14;98262.72;;;14.39;44.26
36242;BME280;22283;42.748;12.732;2023-04-09T13:19:15;98268.47;;;14.13;43.76
36242;BME280;22283;42.748;12.732;2023-04-09T13:24:16;98269.88;;;14.17;43.61
36242;BME280;22283;42.748;12.732;2023-04-09T13:29:17;98280.44;;;13.66;47.02
36242;BME280;22283;42.748;12.732;2023-04-09T13:34:17;98265.28;;;13.24;49.02
36242;BME280;22283;42.748;12.732;2023-04-09T13:39:19;98271.31;;;13.15;49.77
36242;BME280;22283;42.748;12.732;2023-04-09T13:44:20;98256.41;;;12.80;51.59
36242;BME280;22283;42.748;12.732;2023-04-09T13:49:21;98254.72;;;13.34;48.39
36242;BME280;22283;42.748;12.732;2023-04-09T13:54:21;98243.13;;;13.67;46.03
36242;BME280;22283;42.748;12.732;2023-04-09T13:59:22;98237.09;;;14.07;45.58
36242;BME280;22283;42.748;12.732;2023-04-09T14:04:23;98227.78;;;14.53;46.06
36242;BME280;22283;42.748;12.732;2023-04-09T14:09:24;98228.53;;;14.65;44.51
36242;BME280;22283;42.748;12.732;2023-04-09T14:14:24;98222.41;;;14.43;43.42
36242;BME280;22283;42.748;12.732;2023-04-09T14:19:25;98229.19;;;14.26;45.25
36242;BME280;22283;42.748;12.732;2023-04-09T14:24:26;98226.19;;;14.10;45.88
36242;BME280;22283;42.748;12.732;2023-04-09T14:29:26;98231.38;;;13.91;43.71
36242;BME280;22283;42.748;12.732;2023-04-09T14:34:29;98221.44;;;14.14;45.05
36242;BME280;22283;42.748;12.732;2023-04-09T14:39:30;98226.53;;;14.26;45.02
36242;BME280;22283;42.748;12.732;2023-04-09T14:44:31;98229.50;;;14.64;44.74
36242;BME280;22283;42.748;12.732;2023-04-09T14:49:32;98229.25;;;14.76;45.48
36242;BME280;22283;42.748;12.732;2023-04-09T14:54:33;98216.72;;;15.17;46.18
36242;BME280;22283;42.748;12.732;2023-04-09T14:59:34;98200.28;;;15.12;46.28
36242;BME280;22283;42.748;12.732;2023-04-09T15:04:35;98221.03;;;14.49;45.23
36242;BME280;22283;42.748;12.732;2023-04-09T15:09:36;98234.09;;;13.80;46.14
36242;BME280;22283;42.748;12.732;2023-04-09T15:14:36;98249.31;;;13.36;48.12
36242;BME280;22283;42.748;12.732;2023-04-09T15:19:37;98255.97;;;13.62;47.82
36242;BME280;22283;42.748;12.732;2023-04-09T15:24:38;98254.00;;;13.64;46.22
36242;BME280;22283;42.748;12.732;2023-04-09T15:29:38;98239.28;;;13.60;45.22
36242;BME280;22283;42.748;12.732;2023-04-09T15:34:39;98244.47;;;13.29;45.08
36242;BME280;22283;42.748;12.732;2023-04-09T15:39:40;98244.75;;;13.15;46.47
36242;BME280;22283;42.748;12.732;2023-04-09T15:44:41;98240.59;;;13.22;46.14
36242;BME280;22283;42.748;12.732;2023-04-09T15:49:42;98240.50;;;13.35;45.83
36242;BME280;22283;42.748;12.732;2023-04-09T15:55:01;98238.53;;;13.37;45.19
36242;BME280;22283;42.748;12.732;2023-04-09T16:00:02;98235.22;;;13.13;46.24
36242;BME280;22283;42.748;12.732;2023-04-09T16:05:05;98236.19;;;13.12;47.00
36242;BME280;22283;42.748;12.732;2023-04-09T16:10:07;98238.00;;;13.11;46.95
36242;BME280;22283;42.748;12.732;2023-04-09T16:15:08;98227.16;;;13.03;47.31
36242;BME280;22283;42.748;12.732;2023-04-09T16:20:09;98231.13;;;13.09;45.72
36242;BME280;22283;42.748;12.732;2023-04-09T16:25:10;98236.06;;;13.13;46.08
36242;BME280;22283;42.748;12.732;2023-04-09T16:30:11;98233.19;;;13.05;46.25
36242;BME280;22283;42.748;12.732;2023-04-09T16:35:12;98231.16;;;12.97;46.45
36242;BME280;22283;42.748;12.732;2023-04-09T16:40:13;98239.13;;;12.86;46.51
36242;BME280;22283;42.748;12.732;2023-04-09T16:45:13;98252.41;;;12.86;47.13
36242;BME280;22283;42.748;12.732;2023-04-09T16:50:14;98248.97;;;12.63;47.74
36242;BME280;22283;42.748;12.732;2023-04-09T16:55:15;98249.19;;;12.38;49.00
36242;BME280;22283;42.748;12.732;2023-04-09T17:00:16;98251.00;;;12.26;49.70
36242;BME280;22283;42.748;12.732;2023-04-09T17:05:17;98254.00;;;12.10;50.19
36242;BME280;22283;42.748;12.732;2023-04-09T17:10:18;98260.97;;;11.89;51.49
36242;BME280;22283;42.748;12.732;2023-04-09T17:15:19;98265.38;;;11.77;51.92
36242;BME280;22283;42.748;12.732;2023-04-09T17:20:22;98273.84;;;11.58;52.81
36242;BME280;22283;42.748;12.732;2023-04-09T17:25:24;98278.88;;;11.50;52.16
36242;BME280;22283;42.748;12.732;2023-04-09T17:30:25;98285.94;;;11.38;52.72
36242;BME280;22283;42.748;12.732;2023-04-09T17:35:29;98281.81;;;11.10;53.84
36242;BME280;22283;42.748;12.732;2023-04-09T17:40:39;98285.06;;;10.90;54.85
36242;BME280;22283;42.748;12.732;2023-04-09T17:45:40;98288.31;;;10.69;53.83
36242;BME280;22283;42.748;12.732;2023-04-09T17:50:41;98297.84;;;10.46;51.94
36242;BME280;22283;42.748;12.732;2023-04-09T17:55:46;98301.03;;;10.39;51.39
36242;BME280;22283;42.748;12.732;2023-04-09T18:00:48;98309.03;;;10.24;50.95
36242;BME280;22283;42.748;12.732;2023-04-09T18:05:48;98313.47;;;10.11;50.57
36242;BME280;22283;42.748;12.732;2023-04-09T18:10:49;98315.69;;;10.04;50.50
36242;BME280;22283;42.748;12.732;2023-04-09T18:15:55;98318.72;;;9.85;50.71
36242;BME280;22283;42.748;12.732;2023-04-09T18:20:56;98327.97;;;9.66;51.07
36242;BME280;22283;42.748;12.732;2023-04-09T18:25:56;98342.50;;;9.46;52.67
36242;BME280;22283;42.748;12.732;2023-04-09T18:30:57;98361.03;;;9.31;52.84
36242;BME280;22283;42.748;12.732;2023-04-09T18:36:01;98376.06;;;9.17;54.42
36242;BME280;22283;42.748;12.732;2023-04-09T18:41:02;98378.44;;;8.93;54.37
36242;BME280;22283;42.748;12.732;2023-04-09T18:46:03;98382.03;;;8.77;54.40
36242;BME280;22283;42.748;12.732;2023-04-09T18:51:03;98392.59;;;8.77;55.81
36242;BME280;22283;42.748;12.732;2023-04-09T18:56:04;98404.16;;;8.75;55.80
36242;BME280;22283;42.748;12.732;2023-04-09T19:01:10;98405.03;;;8.75;55.47
36242;BME280;22283;42.748;12.732;2023-04-09T19:06:12;98415.22;;;8.67;56.43
36242;BME280;22283;42.748;12.732;2023-04-09T19:11:13;98419.13;;;8.46;56.63
36242;BME280;22283;42.748;12.732;2023-04-09T19:16:14;98423.75;;;8.26;57.15
36242;BME280;22283;42.748;12.732;2023-04-09T19:21:16;98438.28;;;8.03;60.78
36242;BME280;22283;42.748;12.732;2023-04-09T19:26:17;98434.69;;;7.74;62.32
36242;BME280;22283;42.748;12.732;2023-04-09T19:31:18;98439.03;;;7.44;64.33
36242;BME280;22283;42.748;12.732;2023-04-09T19:36:19;98448.88;;;7.24;65.71
36242;BME280;22283;42.748;12.732;2023-04-09T19:41:21;98453.13;;;7.27;66.59
36242;BME280;22283;42.748;12.732;2023-04-09T19:46:21;98449.25;;;7.01;67.31
36242;BME280;22283;42.748;12.732;2023-04-09T19:51:22;98455.66;;;6.79;68.78
36242;BME280;22283;42.748;12.732;2023-04-09T19:56:23;98446.25;;;6.75;69.46
36242;BME280;22283;42.748;12.732;2023-04-09T20:01:24;98460.44;;;6.55;71.33
36242;BME280;22283;42.748;12.732;2023-04-09T20:06:24;98464.69;;;6.40;72.33
36242;BME280;22283;42.748;12.732;2023-04-09T20:11:26;98462.59;;;6.12;74.62
36242;BME280;22283;42.748;12.732;2023-04-09T20:16:27;98458.38;;;5.91;75.89
36242;BME280;22283;42.748;12.732;2023-04-09T20:21:27;98468.91;;;5.72;78.28
36242;BME280;22283;42.748;12.732;2023-04-09T20:26:29;98467.16;;;5.54;79.30
36242;BME280;22283;42.748;12.732;2023-04-09T20:31:30;98468.59;;;5.42;79.65
36242;BME280;22283;42.748;12.732;2023-04-09T20:36:31;98482.72;;;5.39;80.36
36242;BME280;22283;42.748;12.732;2023-04-09T20:41:32;98479.97;;;5.24;82.09
36242;BME280;22283;42.748;12.732;2023-04-09T20:46:33;98481.97;;;4.98;84.24
36242;BME280;22283;42.748;12.732;2023-04-09T20:51:33;98481.25;;;4.94;85.60
36242;BME280;22283;42.748;12.732;2023-04-09T20:56:35;98487.22;;;4.98;86.02
36242;BME280;22283;42.748;12.732;2023-04-09T21:01:36;98488.63;;;4.86;86.59
36242;BME280;22283;42.748;12.732;2023-04-09T21:06:36;98481.41;;;4.91;85.20
36242;BME280;22283;42.748;12.732;2023-04-09T21:11:37;98495.59;;;4.87;85.71
36242;BME280;22283;42.748;12.732;2023-04-09T21:16:38;98503.31;;;4.70;87.63
36242;BME280;22283;42.748;12.732;2023-04-09T21:21:38;98501.50;;;4.52;88.34
36242;BME280;22283;42.748;12.732;2023-04-09T21:26:39;98506.06;;;4.47;89.29
36242;BME280;22283;42.748;12.732;2023-04-09T21:31:40;98521.00;;;4.24;89.77
36242;BME280;22283;42.748;12.732;2023-04-09T21:36:41;98515.38;;;4.33;87.86
36242;BME280;22283;42.748;12.732;2023-04-09T21:41:44;98530.28;;;4.31;88.67
36242;BME280;22283;42.748;12.732;2023-04-09T21:46:45;98525.97;;;4.30;88.29
36242;BME280;22283;42.748;12.732;2023-04-09T21:51:46;98532.25;;;4.26;88.77
36242;BME280;22283;42.748;12.732;2023-04-09T21:56:47;98519.75;;;4.12;88.49
36242;BME280;22283;42.748;12.732;2023-04-09T22:01:48;98530.38;;;4.08;88.39
36242;BME280;22283;42.748;12.732;2023-04-09T22:06:48;98527.09;;;4.03;87.91
36242;BME280;22283;42.748;12.732;2023-04-09T22:11:49;98529.53;;;3.85;89.78
36242;BME280;22283;42.748;12.732;2023-04-09T22:16:50;98534.75;;;3.63;91.49
36242;BME280;22283;42.748;12.732;2023-04-09T22:21:51;98535.59;;;3.42;93.27
36242;BME280;22283;42.748;12.732;2023-04-09T22:26:52;98545.31;;;3.38;93.32
36242;BME280;22283;42.748;12.732;2023-04-09T22:31:53;98524.38;;;3.62;91.82
36242;BME280;22283;42.748;12.732;2023-04-09T22:36:55;98536.66;;;3.36;93.21
36242;BME280;22283;42.748;12.732;2023-04-09T22:41:55;98536.44;;;3.19;94.11
36242;BME280;22283;42.748;12.732;2023-04-09T22:46:57;98529.28;;;3.24;94.61
36242;BME280;22283;42.748;12.732;2023-04-09T22:51:58;98535.81;;;3.36;92.89
36242;BME280;22283;42.748;12.732;2023-04-09T22:56:59;98536.66;;;3.36;92.09
36242;BME280;22283;42.748;12.732;2023-04-09T23:02:00;98537.63;;;3.34;92.55
36242;BME280;22283;42.748;12.732;2023-04-09T23:07:01;98551.84;;;3.27;91.83
36242;BME280;22283;42.748;12.732;2023-04-09T23:12:03;98563.94;;;3.06;94.15
36242;BME280;22283;42.748;12.732;2023-04-09T23:17:04;98565.59;;;2.83;95.82
36242;BME280;22283;42.748;12.732;2023-04-09T23:22:05;98573.44;;;2.83;97.15
36242;BME280;22283;42.748;12.732;2023-04-09T23:27:05;98572.63;;;3.06;94.30
36242;BME280;22283;42.748;12.732;2023-04-09T23:32:06;98564.16;;;3.00;94.11
36242;BME280;22283;42.748;12.732;2023-04-09T23:37:07;98572.06;;;2.98;93.75
36242;BME280;22283;42.748;12.732;2023-04-09T23:42:08;98562.34;;;3.02;94.10
36242;BME280;22283;42.748;12.732;2023-04-09T23:47:09;98554.97;;;3.13;93.41
36242;BME280;22283;42.748;12.732;2023-04-09T23:52:11;98555.53;;;2.98;93.88
36242;BME280;22283;42.748;12.732;2023-04-09T23:57:11;98555.53;;;2.72;95.22
